Time;durP1;ratioP1;P1;durP2;ratioP2;P2;SDS_P1;SDS_P2;PMS_P1;PMS_P2;Temp;Humidity;BMP_temperature;BMP_pressure;BME280_temperature;BME280_humidity;BME280_pressure;Samples;Min_cycle;Max_cycle;Signal;HPM_P1;HPM_P2
2022/07/03 00:00:27;;;;;;;10.05;8.35;;;;;;;19.91;70.16;95246.06;5112772;28;20055;-73
2022/07/03 00:02:52;;;;;;;9.23;8.07;;;;;;;19.96;69.55;95249.00;5130011;28;20069;-74
2022/07/03 00:05:18;;;;;;;12.85;8.13;;;;;;;19.98;69.84;95249.66;5130066;28;20028;-73
2022/07/03 00:07:43;;;;;;;9.40;8.05;;;;;;;19.96;68.72;95256.91;5130130;28;20069;-74
2022/07/03 00:10:09;;;;;;;9.50;7.80;;;;;;;19.92;69.11;95245.09;5131207;27;20046;-74
2022/07/03 00:12:34;;;;;;;12.07;8.32;;;;;;;19.99;68.24;95250.47;5116179;27;20039;-73
2022/07/03 00:15:00;;;;;;;10.45;7.63;;;;;;;19.85;69.20;95252.84;5116618;27;20061;-74
2022/07/03 00:17:25;;;;;;;10.68;7.63;;;;;;;19.75;70.36;95259.31;5133756;27;20039;-74
2022/07/03 00:19:51;;;;;;;8.95;8.00;;;;;;;19.65;70.08;95246.34;5134741;27;20034;-73
2022/07/03 00:22:16;;;;;;;8.82;7.78;;;;;;;19.60;70.52;95252.13;5135077;27;20023;-73
2022/07/03 00:24:53;;;;;;;9.25;7.82;;;;;;;19.46;71.38;95262.56;5116367;27;20440;-73
2022/07/03 00:27:20;;;;;;;9.45;8.45;;;;;;;19.23;71.67;95257.22;5116989;27;20110;-73
2022/07/03 00:29:45;;;;;;;13.07;8.60;;;;;;;19.11;72.28;95252.31;5116347;27;20028;-73
2022/07/03 00:32:18;;;;;;;15.73;9.43;;;;;;;18.90;73.02;95241.50;5116119;27;20038;-74
2022/07/03 00:34:43;;;;;;;10.57;8.95;;;;;;;18.91;73.56;95253.66;5117107;27;20042;-74
2022/07/03 00:37:09;;;;;;;11.30;8.63;;;;;;;18.78;74.12;95237.56;5133261;27;20023;-73
2022/07/03 00:39:39;;;;;;;13.52;8.32;;;;;;;18.77;73.50;95231.47;5133287;27;20050;-74
2022/07/03 00:42:05;;;;;;;13.95;7.85;;;;;;;18.85;73.86;95238.56;5116168;27;20110;-74
2022/07/03 00:44:32;;;;;;;10.15;8.10;;;;;;;18.90;73.49;95233.59;5133170;27;20239;-74
2022/07/03 00:46:58;;;;;;;10.82;7.75;;;;;;;18.92;73.77;95226.38;5133072;27;21200;-73
2022/07/03 00:49:24;;;;;;;8.80;7.90;;;;;;;18.98;73.16;95233.59;5134283;27;20102;-74
2022/07/03 00:51:51;;;;;;;10.32;7.50;;;;;;;18.95;72.97;95220.78;5098667;27;20559;-74
2022/07/03 00:54:17;;;;;;;10.75;7.38;;;;;;;19.02;72.13;95231.44;5099316;27;20458;-74
2022/07/03 00:56:43;;;;;;;12.50;7.97;;;;;;;19.00;71.58;95218.47;5115763;27;20027;-74
2022/07/03 00:59:08;;;;;;;10.52;7.63;;;;;;;19.06;71.05;95217.78;5115709;27;20080;-74
2022/07/03 01:01:35;;;;;;;8.73;7.82;;;;;;;19.09;70.21;95217.44;5133941;27;20059;-74
2022/07/03 01:04:28;;;;;;;8.70;7.90;;;;;;;19.14;70.01;95215.13;5098620;27;20027;-74
2022/07/03 01:07:03;;;;;;;11.75;8.20;;;;;;;19.14;69.58;95212.47;5132720;27;20027;-74
2022/07/03 01:09:42;;;;;;;8.73;7.50;;;;;;;19.10;69.65;95210.34;5133085;27;20027;-74
2022/07/03 01:12:34;;;;;;;8.83;7.83;;;;;;;19.14;69.38;95217.75;5099143;27;20126;-73
2022/07/03 01:15:06;;;;;;;9.93;7.45;;;;;;;19.23;69.52;95212.47;5113460;27;20047;-73
2022/07/03 01:17:38;;;;;;;10.00;7.30;;;;;;;19.24;69.86;95207.00;5132698;27;20102;-73
2022/07/03 01:20:04;;;;;;;11.68;7.65;;;;;;;19.26;71.39;95212.13;5132459;27;20039;-73
2022/07/03 01:22:43;;;;;;;10.90;7.65;;;;;;;18.98;71.45;95194.09;5115145;27;20051;-74
2022/07/03 01:25:11;;;;;;;11.88;7.85;;;;;;;18.98;71.05;95207.28;5115324;27;20027;-74
2022/07/03 01:27:47;;;;;;;16.73;7.68;;;;;;;18.95;72.51;95202.34;5132415;27;20068;-73
2022/07/03 01:30:13;;;;;;;9.68;7.43;;;;;;;18.92;72.48;95207.94;5133502;27;20027;-74
2022/07/03 01:32:45;;;;;;;10.38;7.57;;;;;;;18.89;72.02;95209.09;5132213;27;20035;-73
2022/07/03 01:35:22;;;;;;;9.23;7.07;;;;;;;18.79;73.04;95207.66;5132209;27;20023;-73
2022/07/03 01:37:48;;;;;;;7.78;6.93;;;;;;;18.84;71.40;95211.41;5115631;27;20484;-73
2022/07/03 01:40:13;;;;;;;10.00;7.97;;;;;;;18.75;70.98;95207.16;5132064;27;20031;-74
2022/07/03 01:42:40;;;;;;;10.63;7.45;;;;;;;18.65;71.32;95193.34;5132110;27;20038;-73
2022/07/03 01:45:07;;;;;;;10.07;7.38;;;;;;;18.84;70.94;95205.34;5115260;27;20031;-73
2022/07/03 01:47:32;;;;;;;8.95;7.03;;;;;;;18.80;70.47;95193.50;5131983;27;20038;-73
2022/07/03 01:49:58;;;;;;;10.15;7.35;;;;;;;18.89;70.03;95200.41;5097629;27;20572;-73
2022/07/03 01:52:23;;;;;;;8.55;7.18;;;;;;;18.92;69.96;95203.50;5114490;27;20035;-74
2022/07/03 01:54:49;;;;;;;11.20;7.38;;;;;;;18.94;70.14;95203.31;5114568;27;20489;-73
2022/07/03 01:57:14;;;;;;;11.10;7.15;;;;;;;19.00;69.60;95215.81;5114874;27;20385;-74
2022/07/03 01:59:40;;;;;;;11.15;7.50;;;;;;;18.94;69.78;95206.78;5131649;27;20027;-74
2022/07/03 02:02:24;;;;;;;11.63;7.82;;;;;;;18.90;70.16;95208.09;5114627;27;20043;-73
2022/07/03 02:05:01;;;;;;;8.70;7.22;;;;;;;18.92;69.90;95205.31;5131549;27;20019;-74
2022/07/03 02:07:36;;;;;;;10.32;7.57;;;;;;;18.78;70.14;95208.63;5132713;27;20035;-73
2022/07/03 02:10:03;;;;;;;7.95;7.18;;;;;;;18.79;70.29;95200.56;5132678;27;20027;-73
2022/07/03 02:12:35;;;;;;;8.75;7.38;;;;;;;18.79;69.99;95207.66;5131418;27;20038;-74
2022/07/03 02:15:06;;;;;;;7.95;7.07;;;;;;;18.76;70.49;95206.16;5097788;27;20450;-73
2022/07/03 02:17:42;;;;;;;10.57;7.25;;;;;;;18.79;70.22;95199.75;5131432;27;20119;-74
2022/07/03 02:20:08;;;;;;;7.97;7.28;;;;;;;18.74;70.64;95197.63;5131328;27;20043;-74
2022/07/03 02:22:38;;;;;;;8.85;7.55;;;;;;;18.73;70.80;95203.84;5131201;27;20637;-73
2022/07/03 02:25:12;;;;;;;8.10;7.40;;;;;;;18.56;71.03;95191.72;5114003;27;20027;-73
2022/07/03 02:27:47;;;;;;;9.32;6.95;;;;;;;18.66;70.39;95206.31;5114859;27;20035;-73
2022/07/03 02:30:13;;;;;;;10.77;7.40;;;;;;;18.62;70.55;95197.13;5114463;27;20031;-73
2022/07/03 02:32:44;;;;;;;9.95;7.60;;;;;;;18.70;70.26;95209.44;5114017;27;20031;-73
2022/07/03 02:35:11;;;;;;;8.15;7.30;;;;;;;18.72;69.89;95210.91;5130420;27;20111;-74
2022/07/03 02:37:45;;;;;;;9.52;7.80;;;;;;;18.61;70.31;95198.13;5131116;27;20035;-73
2022/07/03 02:40:40;;;;;;;8.68;7.57;;;;;;;18.71;69.84;95201.38;5130942;27;20034;-74
2022/07/03 02:43:08;;;;;;;8.32;7.38;;;;;;;18.66;70.36;95208.94;5116574;27;20118;-73
2022/07/03 02:45:40;;;;;;;10.57;7.22;;;;;;;18.67;70.25;95215.88;5132069;27;20440;-73
2022/07/03 02:48:31;;;;;;;9.52;7.68;;;;;;;18.61;70.20;95216.53;5114137;27;20023;-73
2022/07/03 02:51:01;;;;;;;10.02;7.70;;;;;;;18.61;70.34;95220.94;5116454;27;20026;-73
2022/07/03 02:53:33;;;;;;;8.38;7.60;;;;;;;18.53;70.68;95219.16;5114128;27;20489;-74
2022/07/03 02:56:05;;;;;;;11.02;7.40;;;;;;;18.55;70.62;95227.69;5114596;27;20540;-73
2022/07/03 02:58:49;;;;;;;9.68;8.02;;;;;;;18.55;70.57;95227.69;5113776;27;20028;-73
2022/07/03 03:01:33;;;;;;;9.45;7.80;;;;;;;18.53;70.78;95227.06;5131750;27;20051;-73
2022/07/03 03:04:12;;;;;;;8.15;7.35;;;;;;;18.54;70.96;95233.97;5131798;27;20057;-74
2022/07/03 03:06:37;;;;;;;9.23;8.27;;;;;;;18.49;71.33;95226.56;5113351;28;20039;-73
2022/07/03 03:09:03;;;;;;;8.90;8.00;;;;;;;18.52;71.22;95228.03;5096495;28;20398;-73
2022/07/03 03:11:37;;;;;;;9.02;8.13;;;;;;;18.51;70.93;95231.66;5130469;28;20027;-73
2022/07/03 03:14:02;;;;;;;9.48;7.78;;;;;;;18.49;71.24;95233.63;5130514;28;20046;-73
2022/07/03 03:16:27;;;;;;;9.40;7.53;;;;;;;18.50;70.84;95222.94;5096304;28;20023;-73
2022/07/03 03:18:53;;;;;;;8.23;7.53;;;;;;;18.60;70.89;95235.91;5113365;28;20035;-73
2022/07/03 03:21:19;;;;;;;8.60;7.32;;;;;;;18.58;70.69;95222.09;5113294;28;20484;-73
2022/07/03 03:23:49;;;;;;;9.27;8.02;;;;;;;18.63;70.58;95230.31;5130646;28;20061;-74
2022/07/03 03:26:22;;;;;;;9.55;8.05;;;;;;;18.62;70.65;95233.94;5130384;27;20031;-73
2022/07/03 03:28:48;;;;;;;9.88;7.63;;;;;;;18.59;70.63;95223.75;5097085;28;20412;-74
2022/07/03 03:31:13;;;;;;;8.95;8.05;;;;;;;18.63;70.87;95232.94;5113153;28;20031;-73
2022/07/03 03:33:43;;;;;;;9.38;8.38;;;;;;;18.64;70.94;95237.25;5113392;28;20091;-74
2022/07/03 03:36:10;;;;;;;9.55;7.90;;;;;;;18.63;71.23;95238.22;5113736;28;20039;-73
2022/07/03 03:38:36;;;;;;;10.18;8.05;;;;;;;18.72;71.07;95242.50;5113561;28;20019;-73
2022/07/03 03:41:02;;;;;;;8.93;8.10;;;;;;;18.77;70.61;95238.56;5113184;28;20462;-74
2022/07/03 03:43:27;;;;;;;11.90;8.18;;;;;;;18.85;70.57;95244.63;5113522;28;20432;-74
2022/07/03 03:45:53;;;;;;;9.80;8.10;;;;;;;18.78;71.09;95237.56;5132701;27;20030;-73
2022/07/03 03:48:18;;;;;;;8.93;7.60;;;;;;;18.69;70.94;95239.34;5135927;27;20468;-73
2022/07/03 03:50:44;;;;;;;9.65;8.23;;;;;;;18.79;71.07;95239.22;5134140;27;20058;-73
2022/07/03 03:53:10;;;;;;;8.45;7.60;;;;;;;18.80;70.79;95240.84;5100081;27;20034;-73
2022/07/03 03:55:36;;;;;;;8.63;7.75;;;;;;;18.81;70.70;95243.34;5100000;27;20031;-73
2022/07/03 03:58:01;;;;;;;8.63;7.65;;;;;;;18.89;70.86;95250.41;5135669;27;20023;-73
2022/07/03 04:00:27;;;;;;;9.25;7.93;;;;;;;18.84;72.18;95250.06;5134082;27;20059;-74
2022/07/03 04:02:53;;;;;;;8.40;7.60;;;;;;;18.83;71.34;95245.78;5116972;27;20106;-74
2022/07/03 04:05:18;;;;;;;9.20;8.18;;;;;;;18.75;70.69;95244.00;5116776;27;20031;-73
2022/07/03 04:07:43;;;;;;;10.48;8.40;;;;;;;18.71;71.35;95243.47;5116887;27;20461;-74
2022/07/03 04:10:09;;;;;;;9.80;8.00;;;;;;;18.81;72.58;95248.59;5133822;27;20385;-73
2022/07/03 04:12:35;;;;;;;8.40;7.63;;;;;;;18.98;73.70;95233.59;5116728;27;20404;-73
2022/07/03 04:15:00;;;;;;;8.35;7.53;;;;;;;19.22;73.65;95232.69;5116585;27;20092;-73
2022/07/03 04:17:26;;;;;;;11.32;7.80;;;;;;;19.50;71.01;95242.78;5116665;27;20084;-74
2022/07/03 04:19:51;;;;;;;11.70;7.85;;;;;;;19.72;69.03;95235.94;5116516;27;20109;-74
2022/07/03 04:22:17;;;;;;;8.93;7.70;;;;;;;19.95;67.88;95236.81;5133620;27;20031;-73
2022/07/03 04:24:42;;;;;;;8.77;7.70;;;;;;;20.21;66.47;95240.94;5099353;27;20132;-74
2022/07/03 04:27:08;;;;;;;8.30;7.40;;;;;;;20.45;65.74;95230.19;5116388;27;20038;-74
2022/07/03 04:29:33;;;;;;;8.57;7.57;;;;;;;20.80;64.57;95224.47;5134721;27;20462;-74
2022/07/03 04:31:58;;;;;;;8.05;7.28;;;;;;;21.10;63.73;95228.75;5116108;27;20030;-74
2022/07/03 04:34:24;;;;;;;7.45;6.72;;;;;;;21.34;63.00;95229.47;5133454;27;20054;-74
2022/07/03 04:36:49;;;;;;;8.32;7.32;;;;;;;21.69;61.59;95219.97;5133253;27;20027;-74
2022/07/03 04:39:15;;;;;;;8.85;7.68;;;;;;;21.98;60.28;95229.69;5133295;27;20074;-74
2022/07/03 04:41:40;;;;;;;8.07;6.80;;;;;;;22.35;59.88;95229.66;5134410;27;20023;-74
2022/07/03 04:44:06;;;;;;;8.68;6.85;;;;;;;22.69;58.58;95232.38;5116129;27;20485;-74
2022/07/03 04:46:31;;;;;;;7.75;7.05;;;;;;;23.01;58.04;95224.06;5098854;27;20417;-74
2022/07/03 04:48:56;;;;;;;7.57;6.82;;;;;;;23.26;56.67;95221.78;5133410;27;20043;-74
2022/07/03 04:51:22;;;;;;;7.32;6.57;;;;;;;23.15;57.76;95231.06;5133030;27;20488;-74
2022/07/03 04:53:47;;;;;;;10.48;6.90;;;;;;;22.88;57.98;95230.91;5133162;27;20645;-74
2022/07/03 04:56:13;;;;;;;7.95;7.05;;;;;;;22.80;57.87;95230.22;5133658;27;20389;-74
2022/07/03 04:58:38;;;;;;;10.20;6.78;;;;;;;22.77;58.71;95230.59;5098753;27;20462;-74
2022/07/03 05:01:04;;;;;;;8.20;7.03;;;;;;;22.66;60.03;95227.47;5115657;27;20062;-74
2022/07/03 05:03:29;;;;;;;8.20;7.25;;;;;;;22.66;58.33;95231.94;5133026;27;20031;-74
2022/07/03 05:05:55;;;;;;;11.02;7.43;;;;;;;22.44;59.27;95229.31;5132669;27;20033;-74
2022/07/03 05:08:20;;;;;;;8.18;7.35;;;;;;;22.24;59.65;95228.31;5132997;27;20030;-73
2022/07/03 05:10:46;;;;;;;8.43;7.60;;;;;;;22.13;62.26;95232.25;5133840;27;20034;-74
2022/07/03 05:13:12;;;;;;;9.82;7.63;;;;;;;22.30;60.36;95224.91;5132785;27;20046;-74
2022/07/03 05:15:37;;;;;;;8.88;7.82;;;;;;;22.35;60.38;95224.34;5115392;27;20030;-74
2022/07/03 05:18:03;;;;;;;9.50;8.60;;;;;;;22.24;60.07;95229.16;5115525;27;20035;-74
2022/07/03 05:20:28;;;;;;;9.52;8.32;;;;;;;22.07;60.54;95223.25;5133708;27;20034;-74
2022/07/03 05:22:58;;;;;;;10.48;8.50;;;;;;;21.93;61.61;95225.94;5132529;27;20031;-74
2022/07/03 05:25:23;;;;;;;10.90;9.32;;;;;;;21.84;61.78;95228.72;5132420;27;20024;-74
2022/07/03 05:27:55;;;;;;;11.80;9.30;;;;;;;22.04;61.22;95220.16;5115294;27;20053;-74
2022/07/03 05:30:24;;;;;;;10.30;8.63;;;;;;;22.14;59.79;95220.66;5116188;27;20027;-74
2022/07/03 05:32:50;;;;;;;11.07;8.70;;;;;;;22.26;59.39;95215.75;5115382;27;20035;-74
2022/07/03 05:35:15;;;;;;;9.25;8.35;;;;;;;22.40;61.91;95221.94;5115029;27;20037;-74
2022/07/03 05:37:41;;;;;;;9.90;8.45;;;;;;;22.57;59.56;95219.88;5115234;27;20031;-74
2022/07/03 05:40:07;;;;;;;10.85;8.43;;;;;;;22.68;59.22;95222.81;5114951;27;20621;-74
2022/07/03 05:42:32;;;;;;;9.13;8.32;;;;;;;22.75;59.31;95212.25;5115033;27;20046;-74
2022/07/03 05:44:57;;;;;;;10.27;8.40;;;;;;;22.96;57.90;95227.31;5114787;27;20046;-74
2022/07/03 05:47:23;;;;;;;10.95;8.38;;;;;;;23.03;57.87;95227.34;5132148;27;20649;-74
2022/07/03 05:49:48;;;;;;;11.48;8.27;;;;;;;23.17;58.77;95234.34;5097630;27;20050;-74
2022/07/03 05:52:14;;;;;;;10.05;8.32;;;;;;;23.31;58.10;95240.56;5133169;27;20034;-74
2022/07/03 05:54:39;;;;;;;9.73;8.82;;;;;;;23.36;57.55;95238.13;5114736;27;20035;-74
2022/07/03 05:57:05;;;;;;;11.85;8.35;;;;;;;23.50;58.54;95244.34;5131698;27;20023;-74
2022/07/03 05:59:30;;;;;;;9.43;8.40;;;;;;;23.48;57.81;95235.75;5132959;27;20076;-74
2022/07/03 06:01:56;;;;;;;10.10;8.68;;;;;;;23.60;57.39;95245.59;5131689;27;20043;-74
2022/07/03 06:04:21;;;;;;;10.18;8.35;;;;;;;23.73;56.90;95252.81;5114578;27;20023;-74
2022/07/03 06:06:47;;;;;;;9.30;8.32;;;;;;;23.83;55.82;95255.09;5114350;27;20477;-74
2022/07/03 06:09:12;;;;;;;9.10;8.20;;;;;;;23.94;55.50;95251.88;5130490;27;20442;-74
2022/07/03 06:11:38;;;;;;;8.98;8.18;;;;;;;24.01;55.63;95255.34;5114316;27;20022;-74
2022/07/03 06:14:03;;;;;;;10.48;8.25;;;;;;;24.08;56.55;95248.25;5132566;27;20070;-74
2022/07/03 06:16:28;;;;;;;10.30;9.00;;;;;;;24.20;55.29;95248.47;5132495;27;20027;-74
2022/07/03 06:18:54;;;;;;;10.07;9.07;;;;;;;24.31;55.02;95244.41;5131341;27;20031;-74
2022/07/03 06:21:19;;;;;;;12.27;8.50;;;;;;;24.37;55.59;95242.78;5114148;27;20452;-74
2022/07/03 06:23:45;;;;;;;12.02;9.10;;;;;;;24.44;55.92;95246.31;5114289;27;20121;-74
2022/07/03 06:26:10;;;;;;;10.68;9.60;;;;;;;24.54;55.23;95241.41;5131192;27;20035;-74
2022/07/03 06:28:36;;;;;;;9.27;8.38;;;;;;;24.57;54.82;95245.50;5131280;27;20031;-74
2022/07/03 06:31:01;;;;;;;12.65;9.00;;;;;;;24.67;55.27;95246.72;5131004;27;20034;-74
2022/07/03 06:33:27;;;;;;;11.10;9.70;;;;;;;24.79;54.35;95241.59;5132200;27;20488;-74
2022/07/03 06:35:52;;;;;;;12.40;9.10;;;;;;;24.88;55.22;95243.06;5132190;27;20035;-74
2022/07/03 06:38:17;;;;;;;9.95;9.05;;;;;;;24.93;54.44;95240.59;5132649;27;20031;-74
2022/07/03 06:40:43;;;;;;;11.15;8.90;;;;;;;25.00;53.45;95245.91;5113704;27;20031;-74
2022/07/03 06:43:08;;;;;;;12.38;8.82;;;;;;;24.88;54.26;95235.09;5132544;27;20023;-74
2022/07/03 06:45:34;;;;;;;11.00;9.93;;;;;;;24.66;55.21;95241.63;5130980;27;20035;-74
2022/07/03 06:47:59;;;;;;;12.20;9.88;;;;;;;24.72;54.49;95238.16;5130712;27;20047;-74
2022/07/03 06:50:25;;;;;;;12.23;9.45;;;;;;;24.82;54.80;95241.19;5113950;27;20035;-74
2022/07/03 06:52:50;;;;;;;12.05;9.90;;;;;;;24.53;54.90;95240.59;5096716;27;20584;-74
2022/07/03 06:55:16;;;;;;;9.75;8.73;;;;;;;24.68;55.53;95237.75;5096585;27;20034;-74
2022/07/03 06:57:41;;;;;;;10.07;9.20;;;;;;;24.91;55.02;95242.66;5113773;27;20031;-74
2022/07/03 07:00:07;;;;;;;13.10;9.10;;;;;;;25.11;53.75;95242.63;5130468;27;20513;-74
2022/07/03 07:02:32;;;;;;;10.88;9.25;;;;;;;25.11;53.55;95244.47;5131830;27;20027;-74
2022/07/03 07:04:58;;;;;;;9.57;8.63;;;;;;;25.29;53.57;95239.31;5113565;28;20027;-74
2022/07/03 07:07:23;;;;;;;12.48;8.70;;;;;;;25.42;53.63;95241.16;5130735;27;20030;-74
2022/07/03 07:09:49;;;;;;;10.73;8.38;;;;;;;25.46;51.92;95238.88;5130554;28;20023;-74
2022/07/03 07:12:15;;;;;;;9.70;8.50;;;;;;;25.52;52.49;95232.72;5130556;28;20114;-74
2022/07/03 07:14:40;;;;;;;11.10;8.52;;;;;;;25.57;52.00;95238.22;5130554;28;20023;-74
2022/07/03 07:17:06;;;;;;;10.15;8.55;;;;;;;25.60;52.49;95232.47;5131773;27;20031;-74
2022/07/03 07:19:31;;;;;;;9.65;8.65;;;;;;;25.68;51.31;95228.78;5113696;27;20027;-74
2022/07/03 07:21:57;;;;;;;10.90;9.10;;;;;;;25.48;52.16;95237.66;5134752;27;20035;-74
2022/07/03 07:24:22;;;;;;;10.57;8.93;;;;;;;25.21;53.57;95236.88;5134851;27;20039;-74
2022/07/03 07:26:48;;;;;;;11.02;9.35;;;;;;;25.15;53.66;95225.25;5135966;27;20042;-74
2022/07/03 07:29:13;;;;;;;11.02;9.02;;;;;;;25.15;52.76;95233.22;5117636;27;20031;-73
2022/07/03 07:31:38;;;;;;;9.15;8.32;;;;;;;25.21;53.75;95225.44;5117699;27;20056;-73
2022/07/03 07:34:04;;;;;;;10.13;8.85;;;;;;;25.34;51.78;95220.91;5134477;27;20050;-74
2022/07/03 07:36:31;;;;;;;9.60;8.48;;;;;;;25.24;52.29;95219.72;5135602;27;20027;-74
2022/07/03 07:38:56;;;;;;;9.98;8.98;;;;;;;25.48;52.40;95223.53;5117517;27;20031;-74
2022/07/03 07:41:22;;;;;;;10.77;8.25;;;;;;;25.68;51.15;95216.28;5134658;27;20506;-74
2022/07/03 07:43:47;;;;;;;9.57;8.48;;;;;;;25.89;51.98;95214.41;5134595;27;20027;-74
2022/07/03 07:46:13;;;;;;;12.98;8.50;;;;;;;26.13;50.78;95213.63;5134336;27;20046;-74
2022/07/03 07:48:38;;;;;;;9.43;8.55;;;;;;;26.28;50.49;95208.03;5134501;27;20024;-74
2022/07/03 07:51:04;;;;;;;9.95;8.13;;;;;;;26.37;50.69;95214.72;5117035;27;20035;-73
2022/07/03 07:53:29;;;;;;;9.50;8.55;;;;;;;26.58;50.49;95216.25;5117172;27;20118;-73
2022/07/03 07:55:55;;;;;;;9.27;8.23;;;;;;;26.65;48.99;95216.19;5116877;27;20039;-74
2022/07/03 07:58:22;;;;;;;9.63;8.73;;;;;;;26.79;50.56;95217.69;5134258;27;20519;-74
2022/07/03 08:06:15;;;;;;;9.93;8.90;;;;;;;26.87;49.46;95211.28;5134111;27;20107;-74
2022/07/03 08:08:41;;;;;;;9.25;8.30;;;;;;;26.99;50.55;95208.72;5134166;27;20473;-74
2022/07/03 08:11:06;;;;;;;11.10;8.50;;;;;;;27.11;49.23;95198.97;5133860;27;20564;-74
2022/07/03 08:13:32;;;;;;;9.63;8.73;;;;;;;27.27;49.70;95202.91;5099808;27;20035;-74
2022/07/03 08:15:57;;;;;;;8.63;7.82;;;;;;;27.29;48.48;95195.53;5133721;27;20027;-74
2022/07/03 08:18:23;;;;;;;8.68;7.82;;;;;;;27.31;46.49;95190.78;5135437;27;20035;-74
2022/07/03 08:20:48;;;;;;;9.07;7.65;;;;;;;27.37;47.52;95198.69;5116512;27;20031;-74
2022/07/03 08:23:14;;;;;;;9.38;8.27;;;;;;;27.46;46.77;95191.22;5135240;27;20035;-74
2022/07/03 08:25:39;;;;;;;8.85;7.95;;;;;;;27.40;47.50;95184.13;5133521;27;20031;-74
2022/07/03 08:28:05;;;;;;;9.50;7.65;;;;;;;27.67;46.57;95197.97;5133651;27;20385;-74
2022/07/03 08:30:30;;;;;;;11.80;7.93;;;;;;;27.58;45.68;95199.28;5134650;27;20038;-74
2022/07/03 08:32:57;;;;;;;8.68;7.93;;;;;;;27.55;46.59;95179.22;5098109;27;20038;-74
2022/07/03 08:35:22;;;;;;;9.90;7.82;;;;;;;27.69;47.32;95200.38;5116179;27;20023;-74
2022/07/03 08:37:48;;;;;;;8.93;7.38;;;;;;;27.80;46.57;95208.50;5134412;27;20057;-74
2022/07/03 08:40:14;;;;;;;8.65;7.80;;;;;;;27.97;46.68;95189.16;5133261;27;20027;-74
2022/07/03 08:42:54;;;;;;;12.95;8.38;;;;;;;28.02;47.20;95200.78;5133252;27;20105;-74
2022/07/03 08:45:20;;;;;;;10.75;9.75;;;;;;;27.99;45.25;95190.56;5134467;27;20038;-74
2022/07/03 08:47:46;;;;;;;8.35;7.60;;;;;;;28.01;45.55;95185.81;5116300;27;20061;-75
2022/07/03 08:50:12;;;;;;;8.93;7.50;;;;;;;28.27;46.03;95175.81;5116263;27;20106;-74
2022/07/03 08:52:38;;;;;;;8.57;7.57;;;;;;;28.22;46.45;95178.34;5116092;27;20382;-74
2022/07/03 08:55:04;;;;;;;8.20;7.38;;;;;;;28.25;45.27;95185.88;5098981;27;20116;-74
2022/07/03 08:57:33;;;;;;;7.85;7.00;;;;;;;28.29;44.51;95187.06;5133086;27;20138;-74
2022/07/03 08:59:59;;;;;;;8.38;7.47;;;;;;;28.39;44.41;95173.97;5132988;27;20038;-74
2022/07/03 09:02:25;;;;;;;8.50;7.28;;;;;;;28.63;44.71;95185.53;5098948;27;20039;-74
2022/07/03 09:04:50;;;;;;;8.15;7.13;;;;;;;28.78;43.43;95178.91;5132823;27;20050;-74
2022/07/03 09:07:17;;;;;;;8.85;7.35;;;;;;;28.84;42.99;95189.50;5132769;27;20038;-74
2022/07/03 09:09:43;;;;;;;11.07;7.05;;;;;;;28.85;45.14;95175.09;5132720;27;20050;-74
2022/07/03 09:12:09;;;;;;;9.00;7.45;;;;;;;28.95;44.44;95178.00;5115462;27;20031;-74
2022/07/03 09:14:34;;;;;;;9.98;7.57;;;;;;;28.86;44.36;95171.41;5115608;27;20054;-74
2022/07/03 09:17:00;;;;;;;8.13;6.90;;;;;;;29.03;45.24;95181.34;5115350;27;20052;-74
2022/07/03 09:19:42;;;;;;;11.18;8.02;;;;;;;28.84;43.46;95176.16;5115389;27;20073;-74
2022/07/03 09:22:24;;;;;;;9.27;7.20;;;;;;;28.93;43.58;95169.41;5098436;27;20046;-74
2022/07/03 09:24:51;;;;;;;9.00;7.30;;;;;;;29.11;44.04;95178.34;5132714;27;20084;-74
2022/07/03 09:27:18;;;;;;;8.02;6.72;;;;;;;29.24;42.66;95167.41;5115446;27;20038;-74
2022/07/03 09:30:03;;;;;;;7.20;6.60;;;;;;;29.31;43.15;95175.31;5115368;27;20031;-74
2022/07/03 09:32:38;;;;;;;8.23;6.35;;;;;;;29.35;41.06;95174.63;5132379;27;20038;-74
2022/07/03 09:35:20;;;;;;;7.75;6.00;;;;;;;29.44;41.36;95172.38;5132100;27;20530;-74
2022/07/03 09:38:02;;;;;;;6.78;6.10;;;;;;;29.58;40.92;95168.38;5132130;27;20497;-74
2022/07/03 09:40:46;;;;;;;5.95;5.35;;;;;;;29.76;40.27;95161.28;5116437;27;20039;-74
2022/07/03 09:43:11;;;;;;;8.60;6.07;;;;;;;29.75;41.63;95152.41;5117469;27;20026;-74
2022/07/03 09:45:55;;;;;;;6.60;5.88;;;;;;;29.93;40.52;95155.97;5114928;27;20028;-74
2022/07/03 09:48:33;;;;;;;6.75;5.82;;;;;;;30.06;40.49;95158.34;5133600;27;20093;-74
2022/07/03 09:51:11;;;;;;;7.65;4.95;;;;;;;30.26;35.70;95152.56;5131925;27;20168;-74
2022/07/03 09:53:57;;;;;;;5.25;4.10;;;;;;;30.28;32.73;95155.81;5115308;27;20034;-75
2022/07/03 09:56:43;;;;;;;5.25;4.30;;;;;;;30.34;37.16;95151.34;5131951;27;20035;-73
2022/07/03 09:59:10;;;;;;;5.00;4.10;;;;;;;30.33;32.75;95150.53;5131309;27;20047;-73
2022/07/03 10:01:37;;;;;;;5.82;4.20;;;;;;;30.32;33.69;95150.78;5131472;27;20138;-74
2022/07/03 10:04:22;;;;;;;6.45;4.35;;;;;;;30.40;34.47;95150.41;5131616;27;20039;-74
2022/07/03 10:06:58;;;;;;;5.95;4.13;;;;;;;30.37;32.58;95134.78;5097261;27;20091;-74
2022/07/03 10:09:29;;;;;;;4.80;4.30;;;;;;;30.42;32.92;95138.38;5131586;27;20110;-74
2022/07/03 10:11:55;;;;;;;6.00;4.05;;;;;;;30.45;32.98;95142.41;5114459;27;20503;-74
2022/07/03 10:14:21;;;;;;;6.22;3.90;;;;;;;30.53;30.67;95136.66;5114348;27;20088;-74
2022/07/03 10:16:47;;;;;;;4.72;4.20;;;;;;;30.43;30.87;95128.47;5097325;27;20024;-74
2022/07/03 10:19:23;;;;;;;6.18;4.47;;;;;;;30.46;32.00;95127.97;5114318;27;20042;-75
2022/07/03 10:21:52;;;;;;;5.53;4.30;;;;;;;30.33;33.46;95139.00;5114071;27;20053;-74
2022/07/03 10:24:18;;;;;;;7.97;4.20;;;;;;;30.21;31.76;95120.31;5132535;27;20035;-74
2022/07/03 10:26:43;;;;;;;5.00;4.50;;;;;;;30.34;33.18;95130.75;5114338;27;20396;-74
2022/07/03 10:29:10;;;;;;;6.53;4.30;;;;;;;30.41;31.71;95125.22;5114151;27;20031;-74
2022/07/03 10:31:35;;;;;;;8.65;3.92;;;;;;;30.50;32.17;95123.75;5131123;27;20038;-74
2022/07/03 10:34:00;;;;;;;5.13;4.50;;;;;;;30.52;32.55;95120.84;5113880;27;20031;-74
2022/07/03 10:36:26;;;;;;;5.43;3.88;;;;;;;30.58;31.72;95120.66;5096771;27;20031;-74
2022/07/03 10:38:51;;;;;;;5.95;4.10;;;;;;;30.65;33.69;95117.81;5096935;27;20162;-74
2022/07/03 10:44:48;;;;;;;4.60;3.97;;;;;;;30.60;33.39;95129.28;5132484;27;20050;-74
2022/07/03 10:47:36;;;;;;;5.95;4.13;;;;;;;30.47;31.67;95121.56;5102008;27;20027;-74
2022/07/03 10:50:22;;;;;;;4.65;3.88;;;;;;;30.39;32.01;95113.91;5132055;27;20027;-74
2022/07/03 10:52:48;;;;;;;6.43;4.75;;;;;;;30.27;34.92;95114.81;5130705;27;20183;-74
2022/07/03 10:55:14;;;;;;;9.13;4.93;;;;;;;30.28;35.43;95107.59;5130178;27;20110;-74
2022/07/03 10:57:40;;;;;;;6.63;4.30;;;;;;;30.23;34.05;95110.19;5130884;27;20027;-74
2022/07/03 11:00:16;;;;;;;4.40;4.00;;;;;;;30.21;33.00;95102.38;5130542;27;20049;-74
2022/07/03 11:02:46;;;;;;;5.82;4.28;;;;;;;30.08;32.34;95101.88;5132229;27;20119;-74
2022/07/03 11:05:20;;;;;;;5.50;4.07;;;;;;;30.12;33.59;95095.00;5131037;27;20059;-74
2022/07/03 11:07:52;;;;;;;4.18;3.78;;;;;;;30.13;30.43;95097.41;5130748;27;20027;-74
2022/07/03 11:10:17;;;;;;;5.95;3.78;;;;;;;30.19;32.68;95096.44;5131883;27;20488;-74
2022/07/03 11:13:05;;;;;;;6.20;4.10;;;;;;;30.27;31.93;95093.38;5131668;27;20065;-74
2022/07/03 11:15:36;;;;;;;5.20;3.95;;;;;;;30.22;32.99;95098.66;5130548;28;20047;-74
2022/07/03 11:18:05;;;;;;;4.60;4.20;;;;;;;30.23;33.95;95092.25;5130681;28;20159;-74
2022/07/03 11:20:34;;;;;;;5.45;4.30;;;;;;;30.20;33.43;95087.34;5130329;27;20039;-74
2022/07/03 11:23:09;;;;;;;4.75;4.28;;;;;;;30.31;32.29;95088.34;5113592;28;20288;-74
2022/07/03 11:25:53;;;;;;;9.80;4.13;;;;;;;30.26;33.07;95077.56;5131606;27;20110;-74
2022/07/03 11:28:34;;;;;;;4.90;4.40;;;;;;;30.25;32.00;95071.38;5113449;28;20106;-74
2022/07/03 11:33:42;;;;;;;5.45;4.38;;;;;;;30.17;32.93;95066.41;5132056;27;20122;-74
2022/07/03 11:36:16;;;;;;;5.10;4.45;;;;;;;30.05;33.74;95071.03;5130369;28;20087;-74
2022/07/03 11:39:02;;;;;;;5.45;4.55;;;;;;;30.17;33.78;95062.91;5132078;27;20473;-74
2022/07/03 11:41:29;;;;;;;5.50;4.95;;;;;;;30.13;33.02;95057.22;5113291;28;20045;-74
2022/07/03 11:43:56;;;;;;;7.63;4.63;;;;;;;29.96;33.91;95059.91;5130288;28;20049;-74
2022/07/03 11:46:24;;;;;;;5.05;4.63;;;;;;;29.93;35.16;95056.91;5096217;28;20512;-74
2022/07/03 11:48:50;;;;;;;4.93;4.43;;;;;;;29.92;32.94;95057.94;5130242;28;20565;-74